パゴパゴ の空港の天気 - METARとTAF

パゴパゴ国際空港 ( NSTU / PPG ) - アメリカ領サモア パゴパゴ
飛行場実況気象(Metar)
観測時間11/26 21:50 SST (11/27 08:50 UTC)
風向・風速東南東 4m/s
視程10km以上
天気現象
全天の4割程度の雲 雲底高度 670m
気温28℃
湿度91%
気圧1013.2hPa
METARNSTU 270850Z 12007KT 10SM SCT022 28/26 A2992 RMK SLP132 8/100 T02800264 52020
過去の天気等 Google飛行場航空写真 Wunderground天気予報

過去48時間のMETAR

飛行場予報(TAF)
発表時間: 11/26 18:39 SST (11/27 05:39 UTC)
予報対象時間: 26日19時 SST ~ 27日19時 SST
風向・風速東 6m/s
視程10km以上
天気現象周辺でしゅう雨
全天の4割程度の雲 雲底高度 760m
全天の8割程度の雲 雲底高度 1220m
NSTU 270539Z 2706/2806 10012KT P6SM VCSH SCT025 BKN040